Aérodrome :
LOGIN :

S'inscrire | Disclaimer

   EN    FR    IT 

 










Légende :    VFR   VFR Marginal   IFR   IFR Intensif   IFR Très Intensif
Visi : 
Plafond : 
>= 8 km
>= 3000ft
5 à 8 km
1000 à 3000 ft
1500m à 5 km
500 à 1000 ft
800 à 1500m
200 à 500 ft
< 800m
< 200 ft
Symboles :   Orages  Brouillard  Fortes neiges  Fortes précipitations  Vent > 20 kt
SIGMETs :   Divers  Orages  Givrage  Turbulence  Onde Orograph.  Cendres Volcan.







- Altitude de l'aérodrome : 34 ft
- Code IATA : BLK
- Voir les cartes d'approche


EGNH - Blackpool

DERNIER METAR :
  • 181220Z 24012KT 9999 FEW003 16/12 Q1013

METARs EXPIRÉS :
  • 181150Z 24012KT 9999 FEW024 16/12 Q1013
  • 181120Z 24012KT 9999 FEW020 16/12 Q1013
  • 181050Z 24012KT 9999 FEW020 16/13 Q1013
  • 181020Z 24012KT 9999 FEW023 16/12 Q1013
  • 180950Z 24012KT 9999 FEW016 16/12 Q1013

TAF TAF EGNH
Valide du 18 à 12h jusqu'au 18 à 20h UTC


181059Z 1812/1820 26009KT 9999 SCT025
ATIS : +44 1253 343 434 (x8315)
Pas de NOTAMs connus pour ce terrain.
1 SIGMET publié pour la FIR London (EGTT) :
 
Orages noyés dans la masse
EGTT SIGMET 02 VALID 181036/181300 EGRR
EGTT LONDON FIR EMBD TS FCST WI N5132 W00014 - N5115 E00028 - N5020 W00038 - N5034 W00121 - N5132 W00014 TOP FL300 MOV NNE 20KT NC=



MET'MAP, la Météo Aéronautique d'un coup d'oeil ! - Copyright ORBIFLY Décembre 2007 - Disclaimer

ORBIFLY MET'MAP TEAM :

Programmation & Développement : Alexandra Zaïnal
Conception & Développement : Baudouin d'Aumeries
Co-Programmation & Développement : Marc-Olivier Méhu
Soutien technique & logistique : Manuel Goepfert

Contact : metmap@orbifly.com




SOURCES & CREDITS :

   NOAA